ADDS TAF Board (Experimental) INFO Settings
IDs: Format: Expanded Condensed

KPHX - Phoenix/Sky Harbor, AZ, US

Issued at 0851 UTC 26 May 2016
Updated at: 1037 UTC 26 May 2016
Time0951Z 26/11Z 26/12Z 26/13Z 26/14Z 26/15Z 26/16Z 26/17Z 26/18Z 26/19Z 26/20Z 26/21Z 26/22Z 26/23Z
Type OBS PRVL PRVL PRVL PRVL PRVL PRVL PRVL PRVL PRVL PRVL PRVL PRVL PRVL
VIS 10 >6 >6 >6 >6 >6 >6 >6 >6 >6 >6 >6 >6 >6
CIG -- -- -- -- -- -- -- -- -- -- -- -- -- --
Cover CLR SKC SKC SKC SKC SKC SKC SKC SKC SKC SKC SKC SKC SKC
FltCat VFR VFR VFR VFR VFR VFR VFR VFR VFR VFR VFR VFR VFR VFR
WX -- -- -- -- -- -- -- -- -- -- -- -- -- --
WDir 240 VRB 170 170 170 170 170 250 250 250 250 250 250 250
WSpd 4 5 6 6 6 6 6 11 11 11 11 11 11 11
WGst -- -- -- -- -- -- -- 18 18 18 18 18 18 18
R07/25
XWnd -2 VRB -6 -6 -6 -6 -6 -4 -4 -4 -4 -4 -4 -4
XGst -- -- -- -- -- -- -- -6 -6 -6 -6 -6 -6 -6
HWnd -3 VRB 1 1 1 1 1 -10 -10 -10 -10 -10 -10 -10
HGst -- -- -- -- -- -- -- -17 -17 -17 -17 -17 -17 -17
R08/26
XWnd -2 VRB -6 -6 -6 -6 -6 -4 -4 -4 -4 -4 -4 -4
XGst -- -- -- -- -- -- -- -6 -6 -6 -6 -6 -6 -6
HWnd -3 VRB 1 1 1 1 1 -10 -10 -10 -10 -10 -10 -10
HGst -- -- -- -- -- -- -- -17 -17 -17 -17 -17 -17 -17

NOTE: TEMPO conditions in [brackets]. Keep in mind TEMPO conditions might be better (lower impact) than prevailing conditions.

Raw TAF
KPHX 260851Z 2609/2706 VRB05KT P6SM SKC
  FM261200 17006KT P6SM SKC
  FM261700 25011G18KT P6SM SKC
  FM270200 26006KT P6SM SKC


Raw METAR
KPHX 260951Z 24004KT 10SM CLR 21/01 A2988 RMK AO2 SLP101 T02110006
KPHX 260851Z 24003KT 10SM CLR 22/M02 A2988 RMK AO2 SLP102 T02221017 51005
KPHX 260751Z 24007KT 10SM CLR 22/M03 A2988 RMK AO2 SLP102 T02221028

METAR Board
Radar Display
Forecast Discussion

TAF Board Legend

Potential Impact
Threat None Slight Moderate High
Visibility (sm) ≥5.1 5.1>X≥3 3>X≥1 <1
Ceiling (100 ft) ≥30.1 30.1>X≥10 10>X≥5 <5
Wind Speed (kt) <10 10≤X<20 20≤X<30 ≥30
Wind Gust (kt) <15 15≤X<25 25≤X<35 ≥35
Weather No Wx Reported VCTS,-TS,-FZRA,SN TS,FZRA +TS,+FZRA,+SN